Portada
METAR-TAF:

METAR-TAF

Aeroports :

Casals, França

latitud: 44-32N, longitud: 001-08W, altitud: 25 m

Observació

L'informe es va fer fa 26 minuts, a les 15:00 UTC
Vent 10 kt del Nord/Nord-Est
Temperatura 15°C
Humitat 48%
Pressió 1029 hPa
Visibilitat 10 km o més
sense núvols per sota de 1500 mi sense presència de cumulonimbus.

METAR: LFBC 271500Z AUTO 03010KT CAVOK 15/04 Q1029

Hora: 16:26 (15:26 UTC)

Pronòstic

L'informe es va fer fa 25 hores i 26 minuts, a les 14:00 UTC
Pronòstic vàlid del 26 a les 15 UTC al 27 a les 15 UTC
Vent 5 kt del Nord/Nord-Est
Visibilitat 10 km o més
Escasses núvols a una alçada de 1500 ft
Cel ennuvolat a una alçada de 2500 ft

TAF: LFBC 261400Z 2615/2715 02005KT 9999 FEW015 BKN025

Observacions i pronòstics meteorològics de més de 4000 aeroports (METAR i TAF).

Les estacions disponibles són els punts grocs i vermells al mapa.

Posi el ratolí al punt desitjat per veure el nom de l'estació.

Feu clic per veure les observacions i els pronòstics meteorològics.

Per canviar el mapa: feu clic els botons verds amb una creu de color negre per apropar; al botó verd amb un guió per allunyar la imatge; o en les fletxes verdes per a mapes adjacents.


METAR-TAF: